sensor_id;sensor_type;location;lat;lon;timestamp;temperature;humidity
8664;DHT22;4369;47.842;13.096;2023-03-01T00:02:05;1.80;99.90
8664;DHT22;4369;47.842;13.096;2023-03-01T00:04:32;1.70;99.90
8664;DHT22;4369;47.842;13.096;2023-03-01T00:07:01;1.70;99.90
8664;DHT22;4369;47.842;13.096;2023-03-01T00:09:27;1.70;99.90
8664;DHT22;4369;47.842;13.096;2023-03-01T00:11:56;1.70;99.90
8664;DHT22;4369;47.842;13.096;2023-03-01T00:14:22;1.70;99.90
8664;DHT22;4369;47.842;13.096;2023-03-01T00:16:49;1.60;99.90
8664;DHT22;4369;47.842;13.096;2023-03-01T00:19:18;1.50;99.90
8664;DHT22;4369;47.842;13.096;2023-03-01T00:21:46;1.60;99.90
8664;DHT22;4369;47.842;13.096;2023-03-01T00:24:13;1.50;99.90
8664;DHT22;4369;47.842;13.096;2023-03-01T00:26:39;1.50;99.90
8664;DHT22;4369;47.842;13.096;2023-03-01T00:29:08;1.50;99.90
8664;DHT22;4369;47.842;13.096;2023-03-01T00:31:34;1.50;99.90
8664;DHT22;4369;47.842;13.096;2023-03-01T00:34:03;1.40;99.90
8664;DHT22;4369;47.842;13.096;2023-03-01T00:36:32;1.30;99.90
8664;DHT22;4369;47.842;13.096;2023-03-01T00:38:59;1.30;99.90
8664;DHT22;4369;47.842;13.096;2023-03-01T00:41:27;1.30;99.90
8664;DHT22;4369;47.842;13.096;2023-03-01T00:43:54;1.20;99.90
8664;DHT22;4369;47.842;13.096;2023-03-01T00:46:25;1.10;99.90
8664;DHT22;4369;47.842;13.096;2023-03-01T00:48:52;1.10;99.90
8664;DHT22;4369;47.842;13.096;2023-03-01T00:51:20;1.10;99.90
8664;DHT22;4369;47.842;13.096;2023-03-01T00:53:50;1.00;99.90
8664;DHT22;4369;47.842;13.096;2023-03-01T00:56:18;1.00;99.90
8664;DHT22;4369;47.842;13.096;2023-03-01T00:58:45;1.00;99.90
8664;DHT22;4369;47.842;13.096;2023-03-01T01:01:13;0.90;99.90
8664;DHT22;4369;47.842;13.096;2023-03-01T01:03:46;0.90;99.90
8664;DHT22;4369;47.842;13.096;2023-03-01T01:06:15;0.80;99.90
8664;DHT22;4369;47.842;13.096;2023-03-01T01:08:41;0.70;99.90
8664;DHT22;4369;47.842;13.096;2023-03-01T01:11:09;0.60;99.90
8664;DHT22;4369;47.842;13.096;2023-03-01T01:13:36;0.60;99.90
8664;DHT22;4369;47.842;13.096;2023-03-01T01:16:04;0.60;99.90
8664;DHT22;4369;47.842;13.096;2023-03-01T01:18:31;0.60;99.90
8664;DHT22;4369;47.842;13.096;2023-03-01T01:21:04;0.60;99.90
8664;DHT22;4369;47.842;13.096;2023-03-01T01:23:31;0.60;99.90
8664;DHT22;4369;47.842;13.096;2023-03-01T01:26:04;0.50;99.90
8664;DHT22;4369;47.842;13.096;2023-03-01T01:28:31;0.50;99.90
8664;DHT22;4369;47.842;13.096;2023-03-01T01:30:57;0.50;99.90
8664;DHT22;4369;47.842;13.096;2023-03-01T01:33:24;0.50;99.90
8664;DHT22;4369;47.842;13.096;2023-03-01T01:35:51;0.50;99.90
8664;DHT22;4369;47.842;13.096;2023-03-01T01:38:20;0.50;99.90
8664;DHT22;4369;47.842;13.096;2023-03-01T01:40:48;0.50;99.90
8664;DHT22;4369;47.842;13.096;2023-03-01T01:43:19;0.40;99.90
8664;DHT22;4369;47.842;13.096;2023-03-01T01:45:46;0.50;99.90
8664;DHT22;4369;47.842;13.096;2023-03-01T01:48:16;0.40;99.90
8664;DHT22;4369;47.842;13.096;2023-03-01T01:50:45;0.40;99.90
8664;DHT22;4369;47.842;13.096;2023-03-01T01:53:19;0.40;99.90
8664;DHT22;4369;47.842;13.096;2023-03-01T01:55:51;0.40;99.90
8664;DHT22;4369;47.842;13.096;2023-03-01T01:58:20;0.30;99.90
8664;DHT22;4369;47.842;13.096;2023-03-01T02:00:48;0.30;99.90
8664;DHT22;4369;47.842;13.096;2023-03-01T02:03:20;0.30;99.90
8664;DHT22;4369;47.842;13.096;2023-03-01T02:05:52;0.30;99.90
8664;DHT22;4369;47.842;13.096;2023-03-01T02:08:26;0.20;99.90
8664;DHT22;4369;47.842;13.096;2023-03-01T02:10:54;0.20;99.90
8664;DHT22;4369;47.842;13.096;2023-03-01T02:13:22;0.20;99.90
8664;DHT22;4369;47.842;13.096;2023-03-01T02:15:49;0.20;99.90
8664;DHT22;4369;47.842;13.096;2023-03-01T02:18:18;0.20;99.90
8664;DHT22;4369;47.842;13.096;2023-03-01T02:20:55;0.10;99.90
8664;DHT22;4369;47.842;13.096;2023-03-01T02:23:27;0.10;99.90
8664;DHT22;4369;47.842;13.096;2023-03-01T02:25:58;0.00;99.90
8664;DHT22;4369;47.842;13.096;2023-03-01T02:28:31;-0.10;99.90
8664;DHT22;4369;47.842;13.096;2023-03-01T02:30:58;0.00;99.90
8664;DHT22;4369;47.842;13.096;2023-03-01T02:33:44;0.00;99.90
8664;DHT22;4369;47.842;13.096;2023-03-01T02:36:17;0.00;99.90
8664;DHT22;4369;47.842;13.096;2023-03-01T02:38:45;0.10;99.90
8664;DHT22;4369;47.842;13.096;2023-03-01T02:41:15;0.10;99.90
8664;DHT22;4369;47.842;13.096;2023-03-01T02:43:44;0.10;99.90
8664;DHT22;4369;47.842;13.096;2023-03-01T02:46:15;0.00;99.90
8664;DHT22;4369;47.842;13.096;2023-03-01T02:48:45;0.00;99.90
8664;DHT22;4369;47.842;13.096;2023-03-01T02:51:29;-0.10;99.90
8664;DHT22;4369;47.842;13.096;2023-03-01T02:54:08;-0.10;99.90
8664;DHT22;4369;47.842;13.096;2023-03-01T02:56:37;-0.10;99.90
8664;DHT22;4369;47.842;13.096;2023-03-01T02:59:05;-0.10;99.90
8664;DHT22;4369;47.842;13.096;2023-03-01T03:01:33;-0.20;99.90
8664;DHT22;4369;47.842;13.096;2023-03-01T03:04:05;-0.20;99.90
8664;DHT22;4369;47.842;13.096;2023-03-01T03:06:33;-0.20;99.90
8664;DHT22;4369;47.842;13.096;2023-03-01T03:09:00;-0.30;99.90
8664;DHT22;4369;47.842;13.096;2023-03-01T03:11:27;-0.40;99.90
8664;DHT22;4369;47.842;13.096;2023-03-01T03:13:55;-0.40;99.90
8664;DHT22;4369;47.842;13.096;2023-03-01T03:16:24;-0.40;99.90
8664;DHT22;4369;47.842;13.096;2023-03-01T03:18:51;-0.40;99.90
8664;DHT22;4369;47.842;13.096;2023-03-01T03:21:18;-0.40;99.90
8664;DHT22;4369;47.842;13.096;2023-03-01T03:23:45;-0.40;99.90
8664;DHT22;4369;47.842;13.096;2023-03-01T03:26:11;-0.50;99.90
8664;DHT22;4369;47.842;13.096;2023-03-01T03:28:40;-0.40;99.90
8664;DHT22;4369;47.842;13.096;2023-03-01T03:31:07;-0.40;99.90
8664;DHT22;4369;47.842;13.096;2023-03-01T03:33:36;-0.40;99.90
8664;DHT22;4369;47.842;13.096;2023-03-01T03:36:03;-0.50;99.90
8664;DHT22;4369;47.842;13.096;2023-03-01T03:38:30;-0.40;99.90
8664;DHT22;4369;47.842;13.096;2023-03-01T03:41:01;-0.40;99.90
8664;DHT22;4369;47.842;13.096;2023-03-01T03:43:29;-0.40;99.90
8664;DHT22;4369;47.842;13.096;2023-03-01T03:45:56;-0.40;99.90
8664;DHT22;4369;47.842;13.096;2023-03-01T03:48:24;-0.50;99.90
8664;DHT22;4369;47.842;13.096;2023-03-01T03:50:54;-0.50;99.90
8664;DHT22;4369;47.842;13.096;2023-03-01T03:53:22;-0.50;99.90
8664;DHT22;4369;47.842;13.096;2023-03-01T03:55:49;-0.50;99.90
8664;DHT22;4369;47.842;13.096;2023-03-01T03:58:18;-0.50;99.90
8664;DHT22;4369;47.842;13.096;2023-03-01T04:00:47;-0.50;99.90
8664;DHT22;4369;47.842;13.096;2023-03-01T04:03:16;-0.50;99.90
8664;DHT22;4369;47.842;13.096;2023-03-01T04:05:44;-0.40;99.90
8664;DHT22;4369;47.842;13.096;2023-03-01T04:08:13;-0.40;99.90
8664;DHT22;4369;47.842;13.096;2023-03-01T04:10:43;-0.40;99.90
8664;DHT22;4369;47.842;13.096;2023-03-01T04:13:11;-0.40;99.90
8664;DHT22;4369;47.842;13.096;2023-03-01T04:15:39;-0.40;99.90
8664;DHT22;4369;47.842;13.096;2023-03-01T04:18:06;-0.50;99.90
8664;DHT22;4369;47.842;13.096;2023-03-01T04:20:35;-0.50;99.90
8664;DHT22;4369;47.842;13.096;2023-03-01T04:23:04;-0.50;99.90
8664;DHT22;4369;47.842;13.096;2023-03-01T04:25:39;-0.50;99.90
8664;DHT22;4369;47.842;13.096;2023-03-01T04:28:07;-0.50;99.90
8664;DHT22;4369;47.842;13.096;2023-03-01T04:30:35;-0.50;99.90
8664;DHT22;4369;47.842;13.096;2023-03-01T04:33:03;-0.50;99.90
8664;DHT22;4369;47.842;13.096;2023-03-01T04:35:30;-0.50;99.90
8664;DHT22;4369;47.842;13.096;2023-03-01T04:37:58;-0.50;99.90
8664;DHT22;4369;47.842;13.096;2023-03-01T04:40:25;-0.50;99.90
8664;DHT22;4369;47.842;13.096;2023-03-01T04:42:53;-0.50;99.90
8664;DHT22;4369;47.842;13.096;2023-03-01T04:45:20;-0.40;99.90
8664;DHT22;4369;47.842;13.096;2023-03-01T04:47:47;-0.40;99.90
8664;DHT22;4369;47.842;13.096;2023-03-01T04:50:17;-0.30;99.90
8664;DHT22;4369;47.842;13.096;2023-03-01T04:52:46;-0.30;99.90
8664;DHT22;4369;47.842;13.096;2023-03-01T04:55:14;-0.30;99.90
8664;DHT22;4369;47.842;13.096;2023-03-01T04:57:41;-0.30;99.90
8664;DHT22;4369;47.842;13.096;2023-03-01T05:00:11;-0.20;99.90
8664;DHT22;4369;47.842;13.096;2023-03-01T05:02:48;-0.30;99.90
8664;DHT22;4369;47.842;13.096;2023-03-01T05:05:19;-0.30;99.90
8664;DHT22;4369;47.842;13.096;2023-03-01T05:07:47;-0.40;99.90
8664;DHT22;4369;47.842;13.096;2023-03-01T05:10:14;-0.30;99.90
8664;DHT22;4369;47.842;13.096;2023-03-01T05:12:41;-0.40;99.90
8664;DHT22;4369;47.842;13.096;2023-03-01T05:15:10;-0.30;99.90
8664;DHT22;4369;47.842;13.096;2023-03-01T05:17:37;-0.30;99.90
8664;DHT22;4369;47.842;13.096;2023-03-01T05:20:04;-0.40;99.90
8664;DHT22;4369;47.842;13.096;2023-03-01T05:22:34;-0.40;99.90
8664;DHT22;4369;47.842;13.096;2023-03-01T05:25:01;-0.40;99.90
8664;DHT22;4369;47.842;13.096;2023-03-01T05:27:28;-0.30;99.90
8664;DHT22;4369;47.842;13.096;2023-03-01T05:29:55;-0.30;99.90
8664;DHT22;4369;47.842;13.096;2023-03-01T05:32:23;-0.30;99.90
8664;DHT22;4369;47.842;13.096;2023-03-01T05:34:51;-0.20;99.90
8664;DHT22;4369;47.842;13.096;2023-03-01T05:37:20;-0.30;99.90
8664;DHT22;4369;47.842;13.096;2023-03-01T05:39:47;-0.40;99.90
8664;DHT22;4369;47.842;13.096;2023-03-01T05:42:15;-0.40;99.90
8664;DHT22;4369;47.842;13.096;2023-03-01T05:44:42;-0.40;99.90
8664;DHT22;4369;47.842;13.096;2023-03-01T05:47:10;-0.40;99.90
8664;DHT22;4369;47.842;13.096;2023-03-01T05:49:38;-0.40;99.90
8664;DHT22;4369;47.842;13.096;2023-03-01T05:52:05;-0.40;99.90
8664;DHT22;4369;47.842;13.096;2023-03-01T05:54:31;-0.30;99.90
8664;DHT22;4369;47.842;13.096;2023-03-01T05:56:58;-0.30;99.90
8664;DHT22;4369;47.842;13.096;2023-03-01T05:59:25;-0.30;99.90
8664;DHT22;4369;47.842;13.096;2023-03-01T06:01:54;-0.30;99.90
8664;DHT22;4369;47.842;13.096;2023-03-01T06:04:21;-0.30;99.90
8664;DHT22;4369;47.842;13.096;2023-03-01T06:06:49;-0.30;99.90
8664;DHT22;4369;47.842;13.096;2023-03-01T06:09:16;-0.20;99.90
8664;DHT22;4369;47.842;13.096;2023-03-01T06:11:43;-0.10;99.90
8664;DHT22;4369;47.842;13.096;2023-03-01T06:14:10;-0.10;99.90
8664;DHT22;4369;47.842;13.096;2023-03-01T06:16:40;0.00;99.90
8664;DHT22;4369;47.842;13.096;2023-03-01T06:19:06;0.10;99.90
8664;DHT22;4369;47.842;13.096;2023-03-01T06:21:33;0.10;99.90
8664;DHT22;4369;47.842;13.096;2023-03-01T06:24:01;0.20;99.90
8664;DHT22;4369;47.842;13.096;2023-03-01T06:26:28;0.10;99.90
8664;DHT22;4369;47.842;13.096;2023-03-01T06:28:55;0.20;99.90
8664;DHT22;4369;47.842;13.096;2023-03-01T06:31:22;0.30;99.90
8664;DHT22;4369;47.842;13.096;2023-03-01T06:33:48;0.30;99.90
8664;DHT22;4369;47.842;13.096;2023-03-01T06:36:15;0.30;99.90
8664;DHT22;4369;47.842;13.096;2023-03-01T06:38:44;0.40;99.90
8664;DHT22;4369;47.842;13.096;2023-03-01T06:41:12;0.40;99.90
8664;DHT22;4369;47.842;13.096;2023-03-01T06:43:39;0.50;99.90
8664;DHT22;4369;47.842;13.096;2023-03-01T06:46:06;0.60;99.90
8664;DHT22;4369;47.842;13.096;2023-03-01T06:48:33;0.60;99.90
8664;DHT22;4369;47.842;13.096;2023-03-01T06:51:00;0.70;99.90
8664;DHT22;4369;47.842;13.096;2023-03-01T06:53:27;0.70;99.90
8664;DHT22;4369;47.842;13.096;2023-03-01T06:55:55;0.70;99.90
8664;DHT22;4369;47.842;13.096;2023-03-01T06:58:23;0.80;99.90
8664;DHT22;4369;47.842;13.096;2023-03-01T07:00:50;0.90;99.90
8664;DHT22;4369;47.842;13.096;2023-03-01T07:03:17;1.00;99.90
8664;DHT22;4369;47.842;13.096;2023-03-01T07:05:43;1.00;99.90
8664;DHT22;4369;47.842;13.096;2023-03-01T07:08:11;1.00;99.90
8664;DHT22;4369;47.842;13.096;2023-03-01T07:10:37;1.10;99.90
8664;DHT22;4369;47.842;13.096;2023-03-01T07:13:04;1.10;99.90
8664;DHT22;4369;47.842;13.096;2023-03-01T07:15:34;1.10;99.90
8664;DHT22;4369;47.842;13.096;2023-03-01T07:18:01;1.10;99.90
8664;DHT22;4369;47.842;13.096;2023-03-01T07:20:28;1.20;99.90
8664;DHT22;4369;47.842;13.096;2023-03-01T07:22:55;1.40;99.90
8664;DHT22;4369;47.842;13.096;2023-03-01T07:25:24;1.50;99.90
8664;DHT22;4369;47.842;13.096;2023-03-01T07:27:51;1.60;99.90
8664;DHT22;4369;47.842;13.096;2023-03-01T07:30:18;1.60;99.90
8664;DHT22;4369;47.842;13.096;2023-03-01T07:32:47;1.70;99.90
8664;DHT22;4369;47.842;13.096;2023-03-01T07:35:14;1.80;99.90
8664;DHT22;4369;47.842;13.096;2023-03-01T07:37:41;1.80;99.90
8664;DHT22;4369;47.842;13.096;2023-03-01T07:40:09;1.90;99.90
8664;DHT22;4369;47.842;13.096;2023-03-01T07:42:36;2.00;99.90
8664;DHT22;4369;47.842;13.096;2023-03-01T07:45:04;2.20;99.90
8664;DHT22;4369;47.842;13.096;2023-03-01T07:47:31;2.40;99.90
8664;DHT22;4369;47.842;13.096;2023-03-01T07:50:00;2.50;99.90
8664;DHT22;4369;47.842;13.096;2023-03-01T07:52:28;2.70;99.90
8664;DHT22;4369;47.842;13.096;2023-03-01T07:54:54;2.90;99.90
8664;DHT22;4369;47.842;13.096;2023-03-01T07:57:21;3.00;99.90
8664;DHT22;4369;47.842;13.096;2023-03-01T07:59:48;3.10;99.90
8664;DHT22;4369;47.842;13.096;2023-03-01T08:02:16;3.20;99.90
8664;DHT22;4369;47.842;13.096;2023-03-01T08:04:43;3.40;99.90
8664;DHT22;4369;47.842;13.096;2023-03-01T08:07:11;3.50;99.90
8664;DHT22;4369;47.842;13.096;2023-03-01T08:09:38;3.60;99.90
8664;DHT22;4369;47.842;13.096;2023-03-01T08:12:06;3.70;99.90
8664;DHT22;4369;47.842;13.096;2023-03-01T08:14:32;3.70;99.90
8664;DHT22;4369;47.842;13.096;2023-03-01T08:16:59;3.90;99.90
8664;DHT22;4369;47.842;13.096;2023-03-01T08:19:28;3.80;99.90
8664;DHT22;4369;47.842;13.096;2023-03-01T08:21:55;3.50;99.90
8664;DHT22;4369;47.842;13.096;2023-03-01T08:24:25;3.40;99.90
8664;DHT22;4369;47.842;13.096;2023-03-01T08:26:52;3.60;99.90
8664;DHT22;4369;47.842;13.096;2023-03-01T08:29:18;3.80;99.90
8664;DHT22;4369;47.842;13.096;2023-03-01T08:31:45;3.90;99.90
8664;DHT22;4369;47.842;13.096;2023-03-01T08:34:14;4.00;99.90
8664;DHT22;4369;47.842;13.096;2023-03-01T08:36:43;4.10;99.90
8664;DHT22;4369;47.842;13.096;2023-03-01T08:39:12;4.00;99.90
8664;DHT22;4369;47.842;13.096;2023-03-01T08:41:40;3.80;99.90
8664;DHT22;4369;47.842;13.096;2023-03-01T08:44:09;3.80;99.90
8664;DHT22;4369;47.842;13.096;2023-03-01T08:46:37;3.90;99.90
8664;DHT22;4369;47.842;13.096;2023-03-01T08:49:04;4.00;99.90
8664;DHT22;4369;47.842;13.096;2023-03-01T08:51:33;4.00;99.90
8664;DHT22;4369;47.842;13.096;2023-03-01T08:54:02;4.10;99.90
8664;DHT22;4369;47.842;13.096;2023-03-01T08:56:30;4.30;99.90
8664;DHT22;4369;47.842;13.096;2023-03-01T08:58:58;4.20;99.90
8664;DHT22;4369;47.842;13.096;2023-03-01T09:01:25;4.10;99.90
8664;DHT22;4369;47.842;13.096;2023-03-01T09:03:52;4.30;99.90
8664;DHT22;4369;47.842;13.096;2023-03-01T09:06:19;4.30;99.90
8664;DHT22;4369;47.842;13.096;2023-03-01T09:08:47;4.10;99.90
8664;DHT22;4369;47.842;13.096;2023-03-01T09:11:16;4.20;99.90
8664;DHT22;4369;47.842;13.096;2023-03-01T09:13:43;4.30;99.90
8664;DHT22;4369;47.842;13.096;2023-03-01T09:16:13;4.30;99.90
8664;DHT22;4369;47.842;13.096;2023-03-01T09:18:40;4.60;99.90
8664;DHT22;4369;47.842;13.096;2023-03-01T09:21:09;4.70;99.90
8664;DHT22;4369;47.842;13.096;2023-03-01T09:23:38;4.80;99.90
8664;DHT22;4369;47.842;13.096;2023-03-01T09:26:05;4.80;99.90
8664;DHT22;4369;47.842;13.096;2023-03-01T09:28:33;4.90;99.90
8664;DHT22;4369;47.842;13.096;2023-03-01T09:31:01;4.80;99.90
8664;DHT22;4369;47.842;13.096;2023-03-01T09:33:31;4.80;99.90
8664;DHT22;4369;47.842;13.096;2023-03-01T09:35:59;4.90;99.90
8664;DHT22;4369;47.842;13.096;2023-03-01T09:38:26;4.90;99.90
8664;DHT22;4369;47.842;13.096;2023-03-01T09:40:53;4.90;99.90
8664;DHT22;4369;47.842;13.096;2023-03-01T09:43:25;4.90;99.90
8664;DHT22;4369;47.842;13.096;2023-03-01T09:45:58;4.90;99.90
8664;DHT22;4369;47.842;13.096;2023-03-01T09:48:28;4.90;99.90
8664;DHT22;4369;47.842;13.096;2023-03-01T09:51:01;4.90;99.90
8664;DHT22;4369;47.842;13.096;2023-03-01T09:53:32;5.10;99.90
8664;DHT22;4369;47.842;13.096;2023-03-01T09:56:04;5.10;99.90
8664;DHT22;4369;47.842;13.096;2023-03-01T09:58:37;5.20;99.90
8664;DHT22;4369;47.842;13.096;2023-03-01T10:01:21;5.50;99.90
8664;DHT22;4369;47.842;13.096;2023-03-01T10:04:02;5.80;99.90
8664;DHT22;4369;47.842;13.096;2023-03-01T10:06:31;6.10;99.90
8664;DHT22;4369;47.842;13.096;2023-03-01T10:09:02;6.10;99.90
8664;DHT22;4369;47.842;13.096;2023-03-01T10:11:32;6.00;99.20
8664;DHT22;4369;47.842;13.096;2023-03-01T10:14:04;6.10;99.60
8664;DHT22;4369;47.842;13.096;2023-03-01T10:16:38;6.20;98.70
8664;DHT22;4369;47.842;13.096;2023-03-01T10:19:12;6.40;98.10
8664;DHT22;4369;47.842;13.096;2023-03-01T10:21:44;6.30;97.70
8664;DHT22;4369;47.842;13.096;2023-03-01T10:24:14;6.60;97.90
8664;DHT22;4369;47.842;13.096;2023-03-01T10:26:53;6.70;96.90
8664;DHT22;4369;47.842;13.096;2023-03-01T10:29:24;6.90;96.10
8664;DHT22;4369;47.842;13.096;2023-03-01T10:31:53;7.10;95.80
8664;DHT22;4369;47.842;13.096;2023-03-01T10:34:27;7.50;94.20
8664;DHT22;4369;47.842;13.096;2023-03-01T10:36:57;7.70;92.90
8664;DHT22;4369;47.842;13.096;2023-03-01T10:39:25;7.80;91.60
8664;DHT22;4369;47.842;13.096;2023-03-01T10:41:55;8.10;90.80
8664;DHT22;4369;47.842;13.096;2023-03-01T10:44:38;8.20;89.50
8664;DHT22;4369;47.842;13.096;2023-03-01T10:47:08;8.30;87.60
8664;DHT22;4369;47.842;13.096;2023-03-01T10:49:55;8.20;87.10
8664;DHT22;4369;47.842;13.096;2023-03-01T10:52:25;8.50;88.30
8664;DHT22;4369;47.842;13.096;2023-03-01T10:54:54;8.80;86.80
8664;DHT22;4369;47.842;13.096;2023-03-01T10:57:29;8.80;84.00
8664;DHT22;4369;47.842;13.096;2023-03-01T11:00:14;8.50;84.30
8664;DHT22;4369;47.842;13.096;2023-03-01T11:02:42;8.80;86.20
8664;DHT22;4369;47.842;13.096;2023-03-01T11:05:18;9.00;83.40
8664;DHT22;4369;47.842;13.096;2023-03-01T11:07:48;9.00;84.00
8664;DHT22;4369;47.842;13.096;2023-03-01T11:10:18;8.80;83.90
8664;DHT22;4369;47.842;13.096;2023-03-01T11:12:44;8.50;83.00
8664;DHT22;4369;47.842;13.096;2023-03-01T11:15:21;8.70;84.70
8664;DHT22;4369;47.842;13.096;2023-03-01T11:17:49;9.10;84.30
8664;DHT22;4369;47.842;13.096;2023-03-01T11:20:24;9.20;81.90
8664;DHT22;4369;47.842;13.096;2023-03-01T11:22:53;9.60;80.40
8664;DHT22;4369;47.842;13.096;2023-03-01T11:25:24;10.10;78.10
8664;DHT22;4369;47.842;13.096;2023-03-01T11:27:52;9.70;73.80
8664;DHT22;4369;47.842;13.096;2023-03-01T11:30:22;10.10;74.00
8664;DHT22;4369;47.842;13.096;2023-03-01T11:32:58;10.10;74.60
8664;DHT22;4369;47.842;13.096;2023-03-01T11:35:29;10.30;74.30
8664;DHT22;4369;47.842;13.096;2023-03-01T11:38:04;10.80;75.10
8664;DHT22;4369;47.842;13.096;2023-03-01T11:40:40;11.20;67.90
8664;DHT22;4369;47.842;13.096;2023-03-01T11:43:15;11.50;68.10
8664;DHT22;4369;47.842;13.096;2023-03-01T11:45:51;12.20;64.60
8664;DHT22;4369;47.842;13.096;2023-03-01T11:48:38;12.50;59.80
8664;DHT22;4369;47.842;13.096;2023-03-01T11:51:15;14.40;56.60
8664;DHT22;4369;47.842;13.096;2023-03-01T11:53:54;17.70;50.10
8664;DHT22;4369;47.842;13.096;2023-03-01T11:56:29;20.60;43.40
8664;DHT22;4369;47.842;13.096;2023-03-01T11:59:18;22.10;37.60
8664;DHT22;4369;47.842;13.096;2023-03-01T12:02:07;24.00;34.80
8664;DHT22;4369;47.842;13.096;2023-03-01T12:07:47;26.80;28.20
8664;DHT22;4369;47.842;13.096;2023-03-01T12:10:23;28.70;26.90
8664;DHT22;4369;47.842;13.096;2023-03-01T12:13:34;31.10;25.20
8664;DHT22;4369;47.842;13.096;2023-03-01T12:16:13;33.70;23.50
8664;DHT22;4369;47.842;13.096;2023-03-01T12:19:01;34.70;21.60
8664;DHT22;4369;47.842;13.096;2023-03-01T12:21:49;36.70;21.50
8664;DHT22;4369;47.842;13.096;2023-03-01T12:24:38;35.80;20.20
8664;DHT22;4369;47.842;13.096;2023-03-01T12:27:21;37.00;19.70
8664;DHT22;4369;47.842;13.096;2023-03-01T12:29:58;38.00;19.40
8664;DHT22;4369;47.842;13.096;2023-03-01T12:32:45;39.70;18.80
8664;DHT22;4369;47.842;13.096;2023-03-01T12:35:25;40.10;18.10
8664;DHT22;4369;47.842;13.096;2023-03-01T12:37:59;39.40;17.80
8664;DHT22;4369;47.842;13.096;2023-03-01T12:40:48;39.60;17.80
8664;DHT22;4369;47.842;13.096;2023-03-01T12:43:27;39.60;17.80
8664;DHT22;4369;47.842;13.096;2023-03-01T12:46:19;40.20;17.40
8664;DHT22;4369;47.842;13.096;2023-03-01T12:48:55;39.60;17.20
8664;DHT22;4369;47.842;13.096;2023-03-01T12:51:28;39.70;17.50
8664;DHT22;4369;47.842;13.096;2023-03-01T12:53:58;40.00;17.10
8664;DHT22;4369;47.842;13.096;2023-03-01T12:56:30;39.60;17.10
8664;DHT22;4369;47.842;13.096;2023-03-01T12:59:02;40.50;17.20
8664;DHT22;4369;47.842;13.096;2023-03-01T13:01:42;40.80;16.80
8664;DHT22;4369;47.842;13.096;2023-03-01T13:04:21;39.20;17.70
8664;DHT22;4369;47.842;13.096;2023-03-01T13:06:58;38.20;17.50
8664;DHT22;4369;47.842;13.096;2023-03-01T13:09:35;37.60;17.70
8664;DHT22;4369;47.842;13.096;2023-03-01T13:12:49;38.90;17.70
8664;DHT22;4369;47.842;13.096;2023-03-01T13:15:28;39.30;17.30
8664;DHT22;4369;47.842;13.096;2023-03-01T13:17:56;37.80;17.70
8664;DHT22;4369;47.842;13.096;2023-03-01T13:20:29;37.70;17.90
8664;DHT22;4369;47.842;13.096;2023-03-01T13:23:07;37.70;18.00
8664;DHT22;4369;47.842;13.096;2023-03-01T13:28:52;37.50;18.10
8664;DHT22;4369;47.842;13.096;2023-03-01T13:34:49;36.80;18.60
8664;DHT22;4369;47.842;13.096;2023-03-01T13:37:37;36.80;18.60
8664;DHT22;4369;47.842;13.096;2023-03-01T13:43:28;37.10;18.30
8664;DHT22;4369;47.842;13.096;2023-03-01T13:45:58;36.90;18.70
8664;DHT22;4369;47.842;13.096;2023-03-01T13:48:28;37.20;18.50
8664;DHT22;4369;47.842;13.096;2023-03-01T13:50:58;37.30;18.70
8664;DHT22;4369;47.842;13.096;2023-03-01T13:53:29;37.70;18.50
8664;DHT22;4369;47.842;13.096;2023-03-01T13:56:00;37.70;18.50
8664;DHT22;4369;47.842;13.096;2023-03-01T13:58:30;36.50;18.70
8664;DHT22;4369;47.842;13.096;2023-03-01T14:01:01;35.90;19.10
8664;DHT22;4369;47.842;13.096;2023-03-01T14:03:29;34.90;19.60
8664;DHT22;4369;47.842;13.096;2023-03-01T14:06:03;34.20;20.10
8664;DHT22;4369;47.842;13.096;2023-03-01T14:08:32;33.30;20.50
8664;DHT22;4369;47.842;13.096;2023-03-01T14:11:20;32.00;21.10
8664;DHT22;4369;47.842;13.096;2023-03-01T14:13:59;29.80;22.60
8664;DHT22;4369;47.842;13.096;2023-03-01T14:16:39;27.90;24.00
8664;DHT22;4369;47.842;13.096;2023-03-01T14:19:15;26.50;25.10
8664;DHT22;4369;47.842;13.096;2023-03-01T14:21:44;25.10;26.20
8664;DHT22;4369;47.842;13.096;2023-03-01T14:24:18;23.90;27.10
8664;DHT22;4369;47.842;13.096;2023-03-01T14:26:46;23.10;27.80
8664;DHT22;4369;47.842;13.096;2023-03-01T14:29:27;22.80;28.30
8664;DHT22;4369;47.842;13.096;2023-03-01T14:31:55;22.10;28.60
8664;DHT22;4369;47.842;13.096;2023-03-01T14:34:23;22.20;28.90
8664;DHT22;4369;47.842;13.096;2023-03-01T14:36:50;22.20;28.90
8664;DHT22;4369;47.842;13.096;2023-03-01T14:39:20;22.20;29.00
8664;DHT22;4369;47.842;13.096;2023-03-01T14:41:51;21.10;29.70
8664;DHT22;4369;47.842;13.096;2023-03-01T14:44:21;20.00;31.00
8664;DHT22;4369;47.842;13.096;2023-03-01T14:46:52;18.90;33.30
8664;DHT22;4369;47.842;13.096;2023-03-01T14:49:23;17.90;34.40
8664;DHT22;4369;47.842;13.096;2023-03-01T14:51:54;17.40;35.10
8664;DHT22;4369;47.842;13.096;2023-03-01T14:54:25;16.10;37.10
8664;DHT22;4369;47.842;13.096;2023-03-01T14:56:57;15.40;39.40
8664;DHT22;4369;47.842;13.096;2023-03-01T14:59:24;14.70;40.70
8664;DHT22;4369;47.842;13.096;2023-03-01T15:01:55;14.50;42.30
8664;DHT22;4369;47.842;13.096;2023-03-01T15:04:25;14.20;43.40
8664;DHT22;4369;47.842;13.096;2023-03-01T15:06:53;14.00;44.40
8664;DHT22;4369;47.842;13.096;2023-03-01T15:09:21;14.00;45.20
8664;DHT22;4369;47.842;13.096;2023-03-01T15:11:48;13.50;45.70
8664;DHT22;4369;47.842;13.096;2023-03-01T15:14:36;13.50;46.40
8664;DHT22;4369;47.842;13.096;2023-03-01T15:17:13;13.40;47.50
8664;DHT22;4369;47.842;13.096;2023-03-01T15:19:45;13.00;49.10
8664;DHT22;4369;47.842;13.096;2023-03-01T15:22:15;12.80;50.30
8664;DHT22;4369;47.842;13.096;2023-03-01T15:24:46;12.80;50.60
8664;DHT22;4369;47.842;13.096;2023-03-01T15:27:16;12.50;51.70
8664;DHT22;4369;47.842;13.096;2023-03-01T15:29:49;12.30;52.80
8664;DHT22;4369;47.842;13.096;2023-03-01T15:32:26;12.20;53.70
8664;DHT22;4369;47.842;13.096;2023-03-01T15:34:54;11.80;55.20
8664;DHT22;4369;47.842;13.096;2023-03-01T15:37:39;11.40;56.80
8664;DHT22;4369;47.842;13.096;2023-03-01T15:40:18;10.60;60.30
8664;DHT22;4369;47.842;13.096;2023-03-01T15:42:46;10.40;64.20
8664;DHT22;4369;47.842;13.096;2023-03-01T15:45:22;10.30;67.20
8664;DHT22;4369;47.842;13.096;2023-03-01T15:47:50;10.10;69.40
8664;DHT22;4369;47.842;13.096;2023-03-01T15:50:21;10.10;71.20
8664;DHT22;4369;47.842;13.096;2023-03-01T15:52:49;10.00;72.90
8664;DHT22;4369;47.842;13.096;2023-03-01T15:55:18;10.00;74.50
8664;DHT22;4369;47.842;13.096;2023-03-01T15:57:45;10.00;76.10
8664;DHT22;4369;47.842;13.096;2023-03-01T16:00:13;9.90;80.10
8664;DHT22;4369;47.842;13.096;2023-03-01T16:02:42;9.80;82.00
8664;DHT22;4369;47.842;13.096;2023-03-01T16:05:17;9.40;84.90
8664;DHT22;4369;47.842;13.096;2023-03-01T16:07:46;9.20;89.40
8664;DHT22;4369;47.842;13.096;2023-03-01T16:10:13;9.10;90.40
8664;DHT22;4369;47.842;13.096;2023-03-01T16:12:40;9.00;91.40
8664;DHT22;4369;47.842;13.096;2023-03-01T16:15:15;8.80;92.90
8664;DHT22;4369;47.842;13.096;2023-03-01T16:17:43;8.60;94.50
8664;DHT22;4369;47.842;13.096;2023-03-01T16:20:10;8.60;95.40
8664;DHT22;4369;47.842;13.096;2023-03-01T16:22:37;8.30;96.90
8664;DHT22;4369;47.842;13.096;2023-03-01T16:25:08;7.90;99.00
8664;DHT22;4369;47.842;13.096;2023-03-01T16:27:35;7.80;99.90
8664;DHT22;4369;47.842;13.096;2023-03-01T16:30:05;7.70;99.90